createdAt,value
2023-05-17T00:01:45.968Z,2.63
2023-05-17T00:04:12.585Z,2.50
2023-05-17T00:06:39.132Z,2.60
2023-05-17T00:09:05.776Z,2.97
2023-05-17T00:11:32.629Z,2.30
2023-05-17T00:13:59.303Z,2.60
2023-05-17T00:16:25.830Z,2.57
2023-05-17T00:18:52.589Z,2.60
2023-05-17T00:21:19.228Z,2.83
2023-05-17T00:23:45.690Z,2.77
2023-05-17T00:26:13.685Z,2.60
2023-05-17T00:28:40.312Z,3.67
2023-05-17T00:31:07.029Z,2.70
2023-05-17T00:33:33.481Z,3.37
2023-05-17T00:36:00.060Z,3.10
2023-05-17T00:38:26.548Z,2.90
2023-05-17T00:40:54.118Z,3.20
2023-05-17T00:43:20.744Z,3.23
2023-05-17T00:45:49.226Z,2.97
2023-05-17T00:48:16.211Z,3.27
2023-05-17T00:50:43.112Z,3.00
2023-05-17T00:53:09.845Z,3.00
2023-05-17T00:55:36.415Z,3.20
2023-05-17T00:58:03.017Z,3.70
2023-05-17T01:00:29.597Z,3.77
2023-05-17T01:02:56.181Z,4.20
2023-05-17T01:05:22.927Z,5.00
2023-05-17T01:07:49.376Z,4.60
2023-05-17T01:10:16.026Z,4.43
2023-05-17T01:12:55.630Z,4.70
2023-05-17T01:15:28.466Z,4.40
2023-05-17T01:18:01.174Z,4.67
2023-05-17T01:20:33.986Z,4.43
2023-05-17T01:23:34.614Z,4.30
2023-05-17T01:26:08.818Z,4.30
2023-05-17T01:28:38.547Z,3.50
2023-05-17T01:31:05.859Z,3.67
2023-05-17T01:33:32.685Z,3.37
2023-05-17T01:36:00.753Z,3.00
2023-05-17T01:38:27.191Z,2.97
2023-05-17T01:41:05.931Z,3.23
2023-05-17T01:43:45.956Z,2.90
2023-05-17T01:46:18.887Z,2.93
2023-05-17T01:48:52.832Z,3.17
2023-05-17T01:51:24.544Z,2.97
2023-05-17T01:53:57.081Z,3.20
2023-05-17T01:56:28.721Z,2.90
2023-05-17T01:58:57.109Z,3.00
2023-05-17T02:01:24.918Z,2.83
2023-05-17T02:03:51.666Z,2.77
2023-05-17T02:06:18.182Z,2.53
2023-05-17T02:08:44.786Z,2.70
2023-05-17T02:11:12.446Z,2.60
2023-05-17T02:13:38.933Z,2.80
2023-05-17T02:16:06.449Z,2.57
2023-05-17T02:18:35.571Z,2.50
2023-05-17T02:21:02.263Z,2.40
2023-05-17T02:23:28.807Z,2.53
2023-05-17T02:25:55.268Z,2.60
2023-05-17T02:28:21.773Z,2.50
2023-05-17T02:30:48.409Z,2.30
2023-05-17T02:33:14.923Z,2.30
2023-05-17T02:35:41.525Z,2.40
2023-05-17T02:38:08.025Z,2.37
2023-05-17T02:40:34.677Z,2.73
2023-05-17T02:43:02.640Z,2.40
2023-05-17T02:45:29.262Z,2.50
2023-05-17T02:47:55.954Z,2.20
2023-05-17T02:50:22.451Z,2.40
2023-05-17T02:52:48.967Z,2.53
2023-05-17T02:55:15.733Z,2.27
2023-05-17T02:57:42.565Z,2.33
2023-05-17T03:00:09.917Z,2.50
2023-05-17T03:02:36.550Z,2.50
2023-05-17T03:05:04.973Z,2.40
2023-05-17T03:07:31.860Z,2.70
2023-05-17T03:09:58.429Z,2.30
2023-05-17T03:12:29.358Z,2.73
2023-05-17T03:14:56.241Z,2.10
2023-05-17T03:17:23.710Z,2.30
2023-05-17T03:19:51.395Z,2.30
2023-05-17T03:22:17.965Z,2.60
2023-05-17T03:24:44.464Z,2.30
2023-05-17T03:27:11.265Z,2.60
2023-05-17T03:29:37.905Z,2.23
2023-05-17T03:32:05.459Z,2.53
2023-05-17T03:34:32.495Z,2.13
2023-05-17T03:36:59.175Z,2.27
2023-05-17T03:39:25.836Z,2.20
2023-05-17T03:41:52.345Z,2.40
2023-05-17T03:44:19.153Z,1.80
2023-05-17T03:46:46.216Z,2.20
2023-05-17T03:49:13.680Z,2.20
2023-05-17T03:51:40.863Z,2.30
2023-05-17T03:54:07.480Z,2.07
2023-05-17T03:56:33.970Z,2.70
2023-05-17T03:59:00.560Z,2.47
2023-05-17T04:01:27.272Z,2.00
2023-05-17T04:03:53.914Z,2.13
2023-05-17T04:06:21.955Z,2.03
2023-05-17T04:08:48.960Z,2.13
2023-05-17T04:11:15.474Z,2.07
2023-05-17T04:13:43.188Z,2.00
2023-05-17T04:16:10.052Z,2.17
2023-05-17T04:18:39.146Z,2.40
2023-05-17T04:21:06.656Z,2.27
2023-05-17T04:23:35.109Z,2.63
2023-05-17T04:26:04.158Z,2.60
2023-05-17T04:28:34.828Z,2.40
2023-05-17T04:31:02.455Z,2.30
2023-05-17T04:33:29.190Z,2.67
2023-05-17T04:35:56.767Z,2.40
2023-05-17T04:38:25.063Z,2.57
2023-05-17T04:40:51.715Z,2.17
2023-05-17T04:43:19.038Z,2.90
2023-05-17T04:45:46.731Z,2.93
2023-05-17T04:48:13.777Z,2.90
2023-05-17T04:50:40.688Z,2.93
2023-05-17T04:53:07.160Z,2.47
2023-05-17T04:55:36.130Z,3.23
2023-05-17T04:58:03.893Z,3.40
2023-05-17T05:00:31.679Z,3.30
2023-05-17T05:03:05.005Z,3.00
2023-05-17T05:05:31.968Z,2.60
2023-05-17T05:07:58.825Z,2.50
2023-05-17T05:10:28.693Z,1.97
2023-05-17T05:12:56.046Z,2.90
2023-05-17T05:15:23.225Z,2.60
2023-05-17T05:17:55.151Z,2.63
2023-05-17T05:20:21.908Z,2.50
2023-05-17T05:22:48.520Z,2.53
2023-05-17T05:25:17.488Z,2.63
2023-05-17T05:27:44.562Z,2.83
2023-05-17T05:30:13.472Z,2.60
2023-05-17T05:32:40.154Z,2.70
2023-05-17T05:35:07.527Z,2.70
2023-05-17T05:37:34.117Z,2.83
2023-05-17T05:40:00.677Z,3.00
2023-05-17T05:42:27.674Z,3.10
2023-05-17T05:44:54.161Z,2.87
2023-05-17T05:47:22.043Z,2.87
2023-05-17T05:49:48.653Z,3.07
2023-05-17T05:52:15.238Z,3.30
2023-05-17T05:54:42.718Z,3.00
2023-05-17T05:57:09.308Z,2.97
2023-05-17T05:59:35.862Z,2.97
2023-05-17T06:02:02.492Z,2.70
2023-05-17T06:04:36.799Z,3.00
2023-05-17T06:07:07.823Z,3.03
2023-05-17T06:09:34.526Z,3.03
2023-05-17T06:12:01.355Z,3.30
2023-05-17T06:14:27.853Z,3.83
2023-05-17T06:16:54.300Z,3.07
2023-05-17T06:19:21.175Z,3.40
2023-05-17T06:21:47.777Z,3.30
2023-05-17T06:24:14.252Z,3.20
2023-05-17T06:26:43.398Z,3.60
2023-05-17T06:29:10.519Z,3.30
2023-05-17T06:31:37.078Z,3.07
2023-05-17T06:34:03.594Z,4.03
2023-05-17T06:38:57.107Z,3.77
2023-05-17T06:41:23.790Z,3.80
2023-05-17T06:43:50.316Z,3.23
2023-05-17T06:46:16.794Z,3.77
2023-05-17T06:48:43.430Z,3.97
2023-05-17T06:51:10.038Z,3.37
2023-05-17T06:53:36.519Z,3.40
2023-05-17T06:56:03.122Z,3.33
2023-05-17T06:58:29.589Z,3.23
2023-05-17T07:00:57.394Z,3.70
2023-05-17T07:03:23.947Z,3.33
2023-05-17T07:05:50.924Z,3.57
2023-05-17T07:08:17.360Z,3.43
2023-05-17T07:10:44.240Z,3.70
2023-05-17T07:13:10.710Z,3.37
2023-05-17T07:15:40.128Z,3.60
2023-05-17T07:18:06.786Z,3.33
2023-05-17T07:20:33.406Z,3.47
2023-05-17T07:22:59.863Z,2.83
2023-05-17T07:25:26.422Z,3.53
2023-05-17T07:27:53.045Z,3.10
2023-05-17T07:30:19.559Z,3.50
2023-05-17T07:32:46.138Z,3.20
2023-05-17T07:35:12.607Z,3.80
2023-05-17T07:37:39.057Z,3.27
2023-05-17T07:40:06.257Z,3.17
2023-05-17T07:42:33.296Z,3.03
2023-05-17T07:44:59.784Z,3.47
2023-05-17T07:47:26.398Z,2.70
2023-05-17T07:49:52.910Z,2.80
2023-05-17T07:52:19.380Z,2.80
2023-05-17T07:54:45.866Z,2.63
2023-05-17T07:57:12.512Z,2.60
2023-05-17T07:59:38.968Z,2.50
2023-05-17T08:02:05.598Z,2.43
2023-05-17T08:04:32.400Z,2.50
2023-05-17T08:07:01.092Z,2.80
2023-05-17T08:09:30.369Z,2.53
2023-05-17T08:11:57.437Z,2.83
2023-05-17T08:14:24.707Z,2.77
2023-05-17T08:16:51.823Z,2.97
2023-05-17T08:19:18.637Z,2.63
2023-05-17T08:21:46.296Z,2.60
2023-05-17T08:24:12.900Z,3.23
2023-05-17T08:26:39.724Z,3.10
2023-05-17T08:29:06.381Z,3.30
2023-05-17T08:31:33.144Z,3.23
2023-05-17T08:33:59.971Z,2.93
2023-05-17T08:36:26.945Z,2.70
2023-05-17T08:38:53.413Z,3.00
2023-05-17T08:41:20.903Z,2.50
2023-05-17T08:43:49.078Z,2.40
2023-05-17T08:46:18.480Z,2.57
2023-05-17T08:48:46.707Z,2.40
2023-05-17T08:51:14.744Z,2.93
2023-05-17T08:53:42.528Z,2.50
2023-05-17T08:56:12.932Z,2.20
2023-05-17T08:58:55.607Z,2.90
2023-05-17T09:01:26.482Z,2.40
2023-05-17T09:03:54.397Z,2.70
2023-05-17T09:06:22.401Z,2.47
2023-05-17T09:08:53.289Z,2.50
2023-05-17T09:11:30.246Z,2.47
2023-05-17T09:14:06.720Z,2.50
2023-05-17T09:16:37.735Z,2.30
2023-05-17T09:19:05.906Z,2.67
2023-05-17T09:21:34.025Z,2.50
2023-05-17T09:24:07.966Z,2.53
2023-05-17T09:26:43.015Z,2.30
2023-05-17T09:29:14.247Z,2.20
2023-05-17T09:31:42.138Z,1.90
2023-05-17T09:34:09.365Z,2.10
2023-05-17T09:36:37.719Z,2.70
2023-05-17T09:39:06.196Z,2.10
2023-05-17T09:41:40.661Z,2.57
2023-05-17T09:44:11.914Z,2.30
2023-05-17T09:46:42.499Z,2.20
2023-05-17T09:49:09.395Z,2.00
2023-05-17T09:51:37.595Z,2.20
2023-05-17T09:54:06.650Z,2.20
2023-05-17T09:56:35.132Z,2.57
2023-05-17T09:59:02.440Z,2.57
2023-05-17T10:01:30.844Z,2.23
2023-05-17T10:04:01.794Z,2.17
2023-05-17T10:06:44.048Z,2.07
2023-05-17T10:09:14.716Z,2.73
2023-05-17T10:11:45.924Z,2.20
2023-05-17T10:14:22.960Z,2.83
2023-05-17T10:16:51.641Z,2.10
2023-05-17T10:19:20.894Z,2.47
2023-05-17T10:21:52.388Z,2.07
2023-05-17T10:24:21.685Z,2.00
2023-05-17T10:26:49.998Z,2.17
2023-05-17T10:29:16.934Z,2.23
2023-05-17T10:31:45.215Z,2.17
2023-05-17T10:34:14.121Z,2.80
2023-05-17T10:36:43.350Z,2.30
2023-05-17T10:39:10.704Z,2.60
2023-05-17T10:41:47.971Z,2.57
2023-05-17T10:44:16.583Z,2.57
2023-05-17T10:46:57.216Z,2.60
2023-05-17T10:49:29.880Z,2.50
2023-05-17T10:52:11.774Z,2.80
2023-05-17T10:54:41.883Z,2.70
2023-05-17T10:57:09.649Z,2.30
2023-05-17T10:59:36.089Z,2.70
2023-05-17T11:02:10.036Z,2.53
2023-05-17T11:04:44.955Z,2.43
2023-05-17T11:07:17.400Z,2.55
2023-05-17T11:09:45.295Z,2.40
2023-05-17T11:12:13.786Z,2.53
2023-05-17T11:14:46.207Z,2.30
2023-05-17T11:17:20.077Z,2.40
2023-05-17T11:20:07.603Z,2.40
2023-05-17T11:22:37.432Z,2.53
2023-05-17T11:25:08.522Z,2.40
2023-05-17T11:27:43.241Z,2.40
2023-05-17T11:30:28.972Z,2.47
2023-05-17T11:33:11.175Z,2.43
2023-05-17T11:35:40.659Z,2.50
2023-05-17T11:38:30.382Z,2.60
2023-05-17T11:40:57.816Z,2.60
2023-05-17T11:43:27.172Z,2.50
2023-05-17T11:45:57.532Z,2.80
2023-05-17T11:48:26.448Z,2.42
2023-05-17T11:50:55.294Z,2.50
2023-05-17T11:53:22.016Z,2.63
2023-05-17T11:55:53.161Z,2.67
2023-05-17T11:58:24.257Z,2.23
2023-05-17T12:00:56.545Z,2.47
2023-05-17T12:03:23.102Z,3.00
2023-05-17T12:05:52.063Z,3.10
2023-05-17T12:08:20.234Z,2.10
2023-05-17T12:10:49.327Z,2.13
2023-05-17T12:13:16.341Z,2.50
2023-05-17T12:15:46.973Z,2.40
2023-05-17T12:18:13.546Z,2.47
2023-05-17T12:21:00.123Z,2.33
2023-05-17T12:23:28.080Z,2.80
2023-05-17T12:26:03.415Z,2.47
2023-05-17T12:28:29.884Z,2.70
2023-05-17T12:30:58.751Z,2.53
2023-05-17T12:33:26.229Z,3.53
2023-05-17T12:35:53.103Z,2.93
2023-05-17T12:38:20.093Z,2.72
2023-05-17T12:40:46.954Z,3.10
2023-05-17T12:43:13.487Z,2.92
2023-05-17T12:45:43.062Z,3.00
2023-05-17T12:48:09.643Z,2.95
2023-05-17T12:50:36.147Z,2.75
2023-05-17T12:53:08.534Z,2.95
2023-05-17T12:55:37.429Z,2.67
2023-05-17T12:58:07.185Z,2.83
2023-05-17T13:00:33.681Z,2.67
2023-05-17T13:03:00.408Z,2.47
2023-05-17T13:05:26.939Z,3.05
2023-05-17T13:07:53.425Z,2.85
2023-05-17T13:10:27.859Z,3.00
2023-05-17T13:12:59.150Z,2.87
2023-05-17T13:15:30.383Z,2.85
2023-05-17T13:17:57.193Z,3.40
2023-05-17T13:20:23.743Z,3.20
2023-05-17T13:22:50.699Z,2.60
2023-05-17T13:25:17.254Z,2.47
2023-05-17T13:27:48.511Z,2.60
2023-05-17T13:30:16.397Z,3.20
2023-05-17T13:32:44.230Z,2.63
2023-05-17T13:35:11.183Z,2.75
2023-05-17T13:37:37.737Z,2.50
2023-05-17T13:40:04.915Z,3.08
2023-05-17T13:42:32.082Z,2.70
2023-05-17T13:44:58.669Z,2.67
2023-05-17T13:47:25.387Z,2.70
2023-05-17T13:49:51.925Z,3.35
2023-05-17T13:52:18.861Z,2.83
2023-05-17T13:54:45.356Z,3.05
2023-05-17T13:57:12.023Z,2.90
2023-05-17T13:59:39.194Z,3.25
2023-05-17T14:02:05.903Z,2.90
2023-05-17T14:04:32.534Z,3.00
2023-05-17T14:06:59.213Z,2.75
2023-05-17T14:09:25.689Z,3.13
2023-05-17T14:11:52.190Z,3.17
2023-05-17T14:14:18.816Z,2.77
2023-05-17T14:16:45.939Z,2.90
2023-05-17T14:19:12.438Z,3.17
2023-05-17T14:21:38.913Z,2.92
2023-05-17T14:24:05.696Z,3.00
2023-05-17T14:26:32.174Z,2.70
2023-05-17T14:28:58.720Z,2.80
2023-05-17T14:31:26.440Z,2.72
2023-05-17T14:33:52.930Z,2.50
2023-05-17T14:36:19.425Z,3.38
2023-05-17T14:38:45.864Z,2.80
2023-05-17T14:41:12.310Z,2.80
2023-05-17T14:43:38.763Z,2.83
2023-05-17T14:46:05.323Z,2.90
2023-05-17T14:48:32.920Z,2.72
2023-05-17T14:50:59.518Z,3.08
2023-05-17T14:53:29.122Z,2.80
2023-05-17T14:55:57.288Z,2.72
2023-05-17T14:58:23.836Z,2.93
2023-05-17T15:00:56.292Z,2.63
2023-05-17T15:03:26.001Z,2.80
2023-05-17T15:05:56.921Z,2.75
2023-05-17T15:08:23.399Z,2.42
2023-05-17T15:10:51.150Z,2.63
2023-05-17T15:13:18.451Z,2.70
2023-05-17T15:15:46.765Z,2.40
2023-05-17T15:18:15.929Z,2.70
2023-05-17T15:20:42.446Z,2.33
2023-05-17T15:23:09.506Z,2.30
2023-05-17T15:25:36.371Z,2.20
2023-05-17T15:28:02.921Z,2.08
2023-05-17T15:30:29.506Z,1.92
2023-05-17T15:32:59.590Z,1.83
2023-05-17T15:35:26.591Z,2.45
2023-05-17T15:37:55.857Z,2.20
2023-05-17T15:40:22.552Z,2.33
2023-05-17T15:42:51.143Z,2.33
2023-05-17T15:45:18.448Z,2.40
2023-05-17T15:47:45.689Z,2.00
2023-05-17T15:50:12.428Z,2.33
2023-05-17T15:52:38.992Z,1.80
2023-05-17T15:55:05.831Z,1.73
2023-05-17T15:57:32.388Z,2.20
2023-05-17T15:59:58.920Z,2.45
2023-05-17T16:02:25.920Z,2.10
2023-05-17T16:04:52.429Z,1.90
2023-05-17T16:07:18.941Z,1.60
2023-05-17T16:09:45.439Z,1.90
2023-05-17T16:12:12.150Z,1.80
2023-05-17T16:14:40.581Z,1.67
2023-05-17T16:17:07.080Z,1.90
2023-05-17T16:19:34.312Z,1.70
2023-05-17T16:22:01.413Z,2.03
2023-05-17T16:24:28.084Z,1.88
2023-05-17T16:26:54.554Z,1.70
2023-05-17T16:29:21.233Z,1.75
2023-05-17T16:31:48.087Z,2.10
2023-05-17T16:34:14.614Z,1.85
2023-05-17T16:36:41.229Z,1.73
2023-05-17T16:39:07.814Z,1.73
2023-05-17T16:41:35.738Z,1.85
2023-05-17T16:44:02.267Z,1.73
2023-05-17T16:46:28.751Z,2.30
2023-05-17T16:48:55.791Z,1.92
2023-05-17T16:51:22.435Z,1.83
2023-05-17T16:53:48.916Z,2.60
2023-05-17T16:56:15.392Z,2.20
2023-05-17T16:58:41.940Z,2.03
2023-05-17T17:01:08.585Z,1.90
2023-05-17T17:03:35.205Z,1.80
2023-05-17T17:06:01.783Z,2.17
2023-05-17T17:08:28.244Z,2.03
2023-05-17T17:10:54.759Z,1.87
2023-05-17T17:13:21.663Z,2.10
2023-05-17T17:15:48.750Z,1.73
2023-05-17T17:18:15.272Z,2.10
2023-05-17T17:20:41.846Z,2.50
2023-05-17T17:23:08.583Z,2.03
2023-05-17T17:25:35.090Z,1.92
2023-05-17T17:28:01.517Z,1.70
2023-05-17T17:30:28.389Z,1.55
2023-05-17T17:32:55.180Z,2.07
2023-05-17T17:35:21.835Z,2.30
2023-05-17T17:37:48.281Z,1.83
2023-05-17T17:40:14.796Z,2.20
2023-05-17T17:42:41.246Z,2.08
2023-05-17T17:45:08.242Z,1.85
2023-05-17T17:47:34.704Z,2.22
2023-05-17T17:50:01.207Z,1.92
2023-05-17T17:52:27.653Z,1.70
2023-05-17T17:54:54.246Z,2.00
2023-05-17T17:57:22.708Z,2.30
2023-05-17T17:59:49.272Z,1.90
2023-05-17T18:02:15.845Z,1.63
2023-05-17T18:04:42.529Z,2.30
2023-05-17T18:07:09.086Z,1.83
2023-05-17T18:09:35.607Z,2.00
2023-05-17T18:12:02.088Z,2.05
2023-05-17T18:14:28.621Z,1.90
2023-05-17T18:16:55.188Z,2.05
2023-05-17T18:19:21.814Z,1.88
2023-05-17T18:21:50.602Z,1.98
2023-05-17T18:24:17.119Z,2.08
2023-05-17T18:26:43.724Z,1.90
2023-05-17T18:29:10.337Z,2.10
2023-05-17T18:31:36.786Z,2.10
2023-05-17T18:34:03.270Z,1.93
2023-05-17T18:36:29.701Z,1.70
2023-05-17T18:38:58.623Z,2.15
2023-05-17T18:41:26.044Z,1.90
2023-05-17T18:43:53.151Z,2.20
2023-05-17T18:46:19.667Z,1.80
2023-05-17T18:48:46.168Z,1.70
2023-05-17T18:51:12.770Z,2.08
2023-05-17T18:53:39.234Z,2.10
2023-05-17T18:56:06.270Z,2.70
2023-05-17T18:58:32.728Z,2.67
2023-05-17T19:01:01.300Z,4.57
2023-05-17T19:03:28.093Z,4.00
2023-05-17T19:05:54.573Z,6.10
2023-05-17T19:08:21.102Z,8.10
2023-05-17T19:10:47.555Z,9.70
2023-05-17T19:13:14.004Z,6.95
2023-05-17T19:15:41.736Z,7.87
2023-05-17T19:18:08.283Z,9.20
2023-05-17T19:20:34.875Z,7.03
2023-05-17T19:23:01.383Z,9.00
2023-05-17T19:25:28.219Z,6.63
2023-05-17T19:27:54.638Z,5.33
2023-05-17T19:30:21.133Z,4.03
2023-05-17T19:32:47.655Z,3.63
2023-05-17T19:35:14.154Z,3.30
2023-05-17T19:37:40.672Z,3.17
2023-05-17T19:40:07.912Z,2.73
2023-05-17T19:42:34.570Z,2.70
2023-05-17T19:45:01.642Z,2.87
2023-05-17T19:47:28.180Z,2.70
2023-05-17T19:49:54.716Z,3.03
2023-05-17T19:52:21.211Z,2.70
2023-05-17T19:54:47.704Z,3.40
2023-05-17T19:57:14.197Z,2.80
2023-05-17T19:59:40.773Z,3.33
2023-05-17T20:02:07.411Z,3.00
2023-05-17T20:04:33.929Z,3.00
2023-05-17T20:07:00.354Z,2.90
2023-05-17T20:09:30.288Z,2.80
2023-05-17T20:11:57.106Z,2.80
2023-05-17T20:14:23.844Z,3.00
2023-05-17T20:16:50.511Z,3.20
2023-05-17T20:19:17.169Z,2.97
2023-05-17T20:21:43.700Z,2.87
2023-05-17T20:24:10.713Z,2.97
2023-05-17T20:26:37.587Z,2.80
2023-05-17T20:29:07.045Z,2.50
2023-05-17T20:31:35.275Z,2.20
2023-05-17T20:34:02.313Z,2.40
2023-05-17T20:36:28.839Z,1.90
2023-05-17T20:38:55.463Z,2.30
2023-05-17T20:41:21.891Z,2.80
2023-05-17T20:43:52.484Z,2.87
2023-05-17T20:46:19.037Z,2.73
2023-05-17T20:48:47.988Z,2.83
2023-05-17T20:51:15.013Z,2.87
2023-05-17T20:53:41.519Z,2.73
2023-05-17T20:56:08.020Z,2.60
2023-05-17T20:58:34.697Z,3.10
2023-05-17T21:01:01.393Z,2.90
2023-05-17T21:03:29.151Z,2.97
2023-05-17T21:05:55.789Z,2.67
2023-05-17T21:08:22.784Z,2.73
2023-05-17T21:10:49.682Z,2.63
2023-05-17T21:13:16.290Z,2.63
2023-05-17T21:15:42.792Z,2.73
2023-05-17T21:18:10.774Z,2.87
2023-05-17T21:20:38.514Z,3.13
2023-05-17T21:23:05.138Z,2.73
2023-05-17T21:25:31.830Z,2.83
2023-05-17T21:27:58.576Z,2.90
2023-05-17T21:30:25.064Z,2.70
2023-05-17T21:32:51.764Z,3.63
2023-05-17T21:35:18.243Z,3.00
2023-05-17T21:37:44.793Z,2.60
2023-05-17T21:40:11.622Z,2.70
2023-05-17T21:42:38.154Z,2.93
2023-05-17T21:45:05.334Z,3.30
2023-05-17T21:47:31.913Z,3.47
2023-05-17T21:49:58.495Z,3.67
2023-05-17T21:52:25.010Z,2.60
2023-05-17T21:54:51.645Z,2.23
2023-05-17T21:57:20.755Z,2.70
2023-05-17T21:59:48.388Z,2.20
2023-05-17T22:02:14.979Z,2.20
2023-05-17T22:04:41.671Z,2.10
2023-05-17T22:07:08.305Z,2.60
2023-05-17T22:09:34.838Z,2.17
2023-05-17T22:12:01.436Z,2.37
2023-05-17T22:14:33.028Z,2.20
2023-05-17T22:16:59.951Z,2.47
2023-05-17T22:19:26.475Z,2.77
2023-05-17T22:21:53.046Z,2.00
2023-05-17T22:24:20.313Z,2.33
2023-05-17T22:26:47.155Z,1.93
2023-05-17T22:29:13.675Z,1.80
2023-05-17T22:31:40.256Z,1.90
2023-05-17T22:34:06.815Z,2.10
2023-05-17T22:36:34.599Z,2.30
2023-05-17T22:39:01.387Z,2.20
2023-05-17T22:41:27.868Z,2.17
2023-05-17T22:43:54.386Z,2.60
2023-05-17T22:46:20.926Z,2.17
2023-05-17T22:48:47.634Z,1.80
2023-05-17T22:51:14.177Z,2.33
2023-05-17T22:53:40.637Z,2.40
2023-05-17T22:56:07.100Z,1.90
2023-05-17T22:58:33.745Z,2.70
2023-05-17T23:01:00.610Z,2.87
2023-05-17T23:03:27.203Z,3.30
2023-05-17T23:06:02.065Z,3.00
2023-05-17T23:08:32.274Z,2.60
2023-05-17T23:10:58.870Z,2.60
2023-05-17T23:13:26.068Z,2.17
2023-05-17T23:15:52.695Z,2.33
2023-05-17T23:18:19.509Z,3.00
2023-05-17T23:20:46.298Z,2.47
2023-05-17T23:23:13.383Z,2.30
2023-05-17T23:25:39.863Z,2.00
2023-05-17T23:28:06.891Z,2.60
2023-05-17T23:30:33.426Z,2.30
2023-05-17T23:33:00.158Z,1.97
2023-05-17T23:35:26.763Z,2.77
2023-05-17T23:37:53.390Z,2.63
2023-05-17T23:40:19.887Z,2.33
2023-05-17T23:42:46.604Z,2.00
2023-05-17T23:45:13.185Z,2.00
2023-05-17T23:47:40.933Z,2.53
2023-05-17T23:50:09.262Z,2.40
2023-05-17T23:52:38.868Z,2.50
2023-05-17T23:55:07.264Z,2.30
2023-05-17T23:57:34.492Z,2.30
